Time;durP1;ratioP1;P1;durP2;ratioP2;P2;SDS_P1;SDS_P2;PMS_P1;PMS_P2;Temp;Humidity;BMP_temperature;BMP_pressure;BME280_temperature;BME280_humidity;BME280_pressure;Samples;Min_cycle;Max_cycle;Signal;HPM_P1;HPM_P2
2022/11/16 00:01:17;;;;;;;8.55;6.63;;;10.50;99.90;;;;;;5088862;28;20047;-60
2022/11/16 00:03:44;;;;;;;8.85;6.50;;;10.40;99.90;;;;;;5088722;28;20081;-61
2022/11/16 00:06:12;;;;;;;9.85;6.72;;;10.50;99.90;;;;;;5090885;28;20048;-61
2022/11/16 00:09:20;;;;;;;8.20;6.55;;;10.40;99.90;;;;;;5090215;28;20102;-61
2022/11/16 00:11:34;;;;;;;8.57;6.47;;;10.50;99.90;;;;;;5088482;28;20521;-60
2022/11/16 00:14:00;;;;;;;9.07;6.47;;;10.50;99.90;;;;;;5106160;28;20487;-60
2022/11/16 00:16:27;;;;;;;9.98;6.90;;;10.40;99.90;;;;;;5090031;28;20044;-60
2022/11/16 00:18:56;;;;;;;10.20;7.07;;;10.40;99.90;;;;;;5090561;28;20051;-59
2022/11/16 00:21:24;;;;;;;10.15;7.38;;;10.40;99.90;;;;;;5089417;28;20048;-59
2022/11/16 00:23:51;;;;;;;10.48;7.55;;;10.40;99.90;;;;;;5088477;28;20089;-61
2022/11/16 00:26:18;;;;;;;11.13;7.82;;;10.40;99.90;;;;;;5088915;28;20044;-60
2022/11/16 00:28:46;;;;;;;10.00;7.75;;;10.40;99.90;;;;;;5085712;28;20052;-61
2022/11/16 00:31:13;;;;;;;8.48;6.88;;;10.40;99.90;;;;;;5087968;28;20475;-60
2022/11/16 00:33:40;;;;;;;10.90;7.70;;;10.30;99.90;;;;;;5087165;28;20093;-59
2022/11/16 00:36:11;;;;;;;11.18;8.07;;;10.40;99.90;;;;;;5088682;28;20070;-60
2022/11/16 00:38:38;;;;;;;15.10;8.05;;;10.30;99.90;;;;;;5089173;28;20047;-59
2022/11/16 00:41:05;;;;;;;11.05;8.00;;;10.40;99.90;;;;;;5085420;28;20087;-59
2022/11/16 00:43:33;;;;;;;12.20;8.23;;;10.30;99.90;;;;;;5088479;28;20063;-60
2022/11/16 00:46:02;;;;;;;10.75;8.30;;;10.30;99.90;;;;;;5088556;28;20307;-61
2022/11/16 00:48:29;;;;;;;12.65;8.25;;;10.40;99.90;;;;;;5090300;28;20489;-59
2022/11/16 00:50:55;;;;;;;12.02;8.43;;;10.40;99.90;;;;;;5087644;28;20052;-60
2022/11/16 00:53:22;;;;;;;12.43;8.88;;;10.30;99.90;;;;;;5089124;28;20052;-61
2022/11/16 00:55:49;;;;;;;11.35;8.85;;;10.30;99.90;;;;;;5088891;28;20067;-60
2022/11/16 00:58:16;;;;;;;12.32;9.15;;;10.40;99.90;;;;;;5088949;28;20085;-59
2022/11/16 01:00:44;;;;;;;13.48;8.98;;;10.40;99.90;;;;;;5087449;28;20097;-60
2022/11/16 01:03:12;;;;;;;11.88;9.05;;;10.40;99.90;;;;;;5089853;28;20458;-61
2022/11/16 01:05:39;;;;;;;11.85;8.85;;;10.40;99.90;;;;;;5088203;28;20109;-60
2022/11/16 01:08:06;;;;;;;12.73;9.40;;;10.30;99.90;;;;;;5089048;28;20101;-60
2022/11/16 01:10:33;;;;;;;12.45;9.98;;;10.40;99.90;;;;;;5084595;28;20044;-60
2022/11/16 01:12:59;;;;;;;16.55;9.98;;;10.30;99.90;;;;;;5089978;28;20089;-59
2022/11/16 01:15:27;;;;;;;12.82;9.18;;;10.40;99.90;;;;;;5088597;28;20051;-60
2022/11/16 01:17:55;;;;;;;15.65;9.93;;;10.40;99.90;;;;;;5089335;28;20056;-60
2022/11/16 01:20:25;;;;;;;13.13;10.20;;;10.30;99.90;;;;;;5087995;28;20048;-60
2022/11/16 01:22:53;;;;;;;15.07;9.57;;;10.30;99.90;;;;;;5088450;28;20044;-59
2022/11/16 01:25:20;;;;;;;12.75;9.40;;;10.30;99.90;;;;;;5087183;28;20293;-60
2022/11/16 01:27:47;;;;;;;11.75;9.23;;;10.40;99.90;;;;;;5089929;28;20048;-60
2022/11/16 01:30:15;;;;;;;11.85;8.95;;;10.30;99.90;;;;;;5088190;28;20040;-60
2022/11/16 01:32:42;;;;;;;14.15;9.30;;;10.30;99.90;;;;;;5088873;28;20048;-60
2022/11/16 01:35:14;;;;;;;15.73;9.93;;;10.40;99.90;;;;;;5091664;28;20055;-60
2022/11/16 01:37:42;;;;;;;14.18;9.00;;;10.30;99.90;;;;;;5092668;28;20063;-60
2022/11/16 01:40:10;;;;;;;15.45;9.13;;;10.40;99.90;;;;;;5088227;28;20052;-59
2022/11/16 01:42:37;;;;;;;13.13;9.13;;;10.40;99.90;;;;;;5089577;28;20084;-60
2022/11/16 01:45:15;;;;;;;12.07;9.07;;;10.40;99.90;;;;;;5092352;28;20055;-60
2022/11/16 01:47:41;;;;;;;11.98;8.75;;;10.40;99.90;;;;;;5091608;28;20052;-60
2022/11/16 01:50:12;;;;;;;11.57;8.77;;;10.40;99.90;;;;;;5092600;28;20156;-60
2022/11/16 01:52:45;;;;;;;14.25;9.38;;;10.40;99.90;;;;;;5092771;28;20056;-61
2022/11/16 01:55:12;;;;;;;11.38;8.98;;;10.40;99.90;;;;;;5091822;28;20097;-60
2022/11/16 01:57:42;;;;;;;13.43;8.45;;;10.40;99.90;;;;;;5091937;28;20048;-60
2022/11/16 02:00:12;;;;;;;13.45;8.02;;;10.40;99.90;;;;;;5090326;28;20499;-60
2022/11/16 02:02:39;;;;;;;12.65;8.13;;;10.40;99.90;;;;;;5093032;28;20457;-61
2022/11/16 02:05:07;;;;;;;11.85;8.18;;;10.50;99.90;;;;;;5093291;28;20108;-61
2022/11/16 02:10:49;;;;;;;10.27;8.38;;;10.50;99.90;;;;;;5092383;28;20059;-60
2022/11/16 02:13:34;;;;;;;12.73;8.65;;;10.50;99.90;;;;;;5091484;28;20074;-61
2022/11/16 02:16:15;;;;;;;10.90;8.00;;;10.50;99.90;;;;;;5090531;28;20047;-60
2022/11/16 02:18:54;;;;;;;10.75;8.23;;;10.50;99.90;;;;;;5089901;28;20043;-61
2022/11/16 02:21:31;;;;;;;11.48;8.25;;;10.50;99.90;;;;;;5088244;28;20101;-61
2022/11/16 02:24:36;;;;;;;11.95;8.27;;;10.50;99.90;;;;;;5092739;28;20036;-60
2022/11/16 02:27:32;;;;;;;9.80;7.43;;;10.50;99.90;;;;;;5092621;28;20093;-61
2022/11/16 02:30:01;;;;;;;13.35;7.72;;;10.50;99.90;;;;;;5091460;28;20048;-60
2022/11/16 02:32:31;;;;;;;11.70;8.32;;;10.50;99.90;;;;;;5091210;28;20085;-61
2022/11/16 02:35:04;;;;;;;13.57;8.37;;;10.50;99.90;;;;;;5092132;28;20070;-60
2022/11/16 02:37:35;;;;;;;10.90;7.47;;;10.50;99.90;;;;;;5090712;28;20093;-59
2022/11/16 02:40:06;;;;;;;9.38;7.25;;;10.50;99.90;;;;;;5091296;28;20074;-61
2022/11/16 02:42:37;;;;;;;13.40;7.80;;;10.50;99.90;;;;;;5089707;28;20109;-60
2022/11/16 02:45:10;;;;;;;14.90;8.05;;;10.50;99.90;;;;;;5090914;28;20081;-61
2022/11/16 02:47:38;;;;;;;12.60;7.78;;;10.50;99.90;;;;;;5088471;28;20058;-61
2022/11/16 02:50:09;;;;;;;10.55;7.32;;;10.50;99.90;;;;;;5089430;28;20446;-61
2022/11/16 02:52:35;;;;;;;;;;;10.50;99.90;;;;;;5091479;28;20052;-61
2022/11/16 02:55:02;;;;;;;14.10;8.05;;;10.50;99.90;;;;;;5092301;28;19920;-60
2022/11/16 02:57:45;;;;;;;11.82;7.55;;;10.50;99.90;;;;;;5090843;28;20188;-61
2022/11/16 03:00:19;;;;;;;16.20;8.00;;;10.50;99.90;;;;;;5089472;28;20090;-60
2022/11/16 03:02:53;;;;;;;11.05;7.60;;;10.50;99.90;;;;;;5089095;28;20058;-61
2022/11/16 03:05:30;;;;;;;12.10;7.40;;;10.40;99.90;;;;;;5083480;28;20047;-60
2022/11/16 03:08:06;;;;;;;9.38;7.38;;;10.50;99.90;;;;;;5092047;28;20420;-60
2022/11/16 03:13:26;;;;;;;10.25;7.38;;;10.50;99.90;;;;;;5091937;28;20032;-61
2022/11/16 03:15:55;;;;;;;;;;;10.50;99.90;;;;;;5090354;28;20794;-60
2022/11/16 03:18:26;;;;;;;9.73;6.63;;;10.50;99.90;;;;;;5089362;28;20421;-61
2022/11/16 03:20:58;;;;;;;12.57;8.32;;;10.50;99.90;;;;;;5091510;28;20450;-61
2022/11/16 03:23:24;;;;;;;10.77;7.18;;;10.50;99.90;;;;;;5091618;28;20044;-61
2022/11/16 03:25:55;;;;;;;19.08;8.38;;;10.50;99.90;;;;;;5089312;28;20105;-61
2022/11/16 03:28:28;;;;;;;10.10;7.25;;;10.50;99.90;;;;;;5091634;28;20044;-61
2022/11/16 03:31:01;;;;;;;10.52;7.72;;;10.50;99.90;;;;;;5091363;28;20083;-61
2022/11/16 03:33:32;;;;;;;10.52;7.78;;;10.50;99.90;;;;;;5089845;28;20563;-61
2022/11/16 03:36:05;;;;;;;12.57;7.72;;;10.50;99.90;;;;;;5089652;28;20096;-60
2022/11/16 03:38:34;;;;;;;10.25;7.65;;;10.50;99.90;;;;;;5085718;28;20052;-61
2022/11/16 03:41:03;;;;;;;13.48;8.13;;;10.50;99.90;;;;;;5090691;28;20122;-60
2022/11/16 03:43:32;;;;;;;11.85;8.13;;;10.50;99.90;;;;;;5089593;28;20499;-60
2022/11/16 03:46:00;;;;;;;11.27;7.30;;;10.50;99.90;;;;;;5088371;28;20043;-61
2022/11/16 03:48:33;;;;;;;10.27;7.72;;;10.50;99.90;;;;;;5091189;28;20089;-60
2022/11/16 03:51:00;;;;;;;10.07;7.82;;;10.50;99.90;;;;;;5089947;28;20101;-61
2022/11/16 03:53:27;;;;;;;13.88;8.82;;;10.50;99.90;;;;;;5090467;28;20446;-61
2022/11/16 03:55:54;;;;;;;11.77;8.07;;;10.50;99.90;;;;;;5088247;28;20620;-60
2022/11/16 03:58:21;;;;;;;11.18;7.88;;;10.50;99.90;;;;;;5086915;28;20052;-61
2022/11/16 04:00:48;;;;;;;18.05;9.30;;;10.50;99.90;;;;;;5089026;28;20136;-61
2022/11/16 04:03:16;;;;;;;11.23;8.93;;;10.30;99.90;;;;;;5088876;28;20105;-60
2022/11/16 04:25:08;;;;;;;15.27;9.20;;;10.40;99.90;;;;;;5088405;28;20440;-60
2022/11/16 04:30:20;;;;;;;14.57;9.80;;;10.40;99.90;;;;;;5090678;28;20436;-60
2022/11/16 04:38:28;;;;;;;14.00;8.75;;;10.40;99.90;;;;;;5046770;28;20045;-62
2022/11/16 04:40:55;;;;;;;13.18;9.70;;;10.40;99.90;;;;;;5079959;28;20399;-61
2022/11/16 04:43:21;;;;;;;14.43;9.27;;;10.40;99.90;;;;;;5085095;28;20047;-60
2022/11/16 04:48:32;;;;;;;12.80;8.68;;;10.40;99.90;;;;;;5088491;28;20083;-61
2022/11/16 04:51:00;;;;;;;14.40;9.82;;;10.40;99.90;;;;;;5090394;28;20474;-60
2022/11/16 04:53:27;;;;;;;13.57;9.30;;;10.40;99.90;;;;;;5088644;28;20544;-61
2022/11/16 04:55:53;;;;;;;12.88;8.82;;;10.40;99.90;;;;;;5088487;28;20048;-61
2022/11/16 04:58:20;;;;;;;11.73;8.90;;;10.40;99.90;;;;;;5090153;28;20686;-61
2022/11/16 05:00:47;;;;;;;12.68;9.48;;;10.40;99.90;;;;;;5090051;28;20082;-61
2022/11/16 05:03:14;;;;;;;13.00;9.20;;;10.30;99.90;;;;;;5079237;28;20093;-62
2022/11/16 05:05:41;;;;;;;16.05;9.20;;;10.40;99.90;;;;;;5076519;28;20059;-62
2022/11/16 05:08:09;;;;;;;11.98;9.25;;;10.40;99.90;;;;;;5079283;28;20052;-61
2022/11/16 05:10:36;;;;;;;12.75;9.27;;;10.40;99.90;;;;;;5082298;28;20476;-61
2022/11/16 05:13:03;;;;;;;12.98;9.13;;;10.40;99.90;;;;;;5087693;28;20048;-62
2022/11/16 05:15:30;;;;;;;14.27;8.93;;;10.40;99.90;;;;;;5081895;28;20109;-61
2022/11/16 05:17:57;;;;;;;14.60;9.55;;;10.40;99.90;;;;;;5084714;28;20047;-62
2022/11/16 05:24:32;;;;;;;13.88;10.10;;;10.30;99.90;;;;;;5088064;28;20130;-61
2022/11/16 05:25:57;;;;;;;15.18;10.35;;;10.30;99.90;;;;;;5086245;28;20056;-61
2022/11/16 05:28:24;;;;;;;13.05;9.57;;;10.30;99.90;;;;;;5083210;28;20431;-61
2022/11/16 05:30:51;;;;;;;13.45;9.70;;;10.30;99.90;;;;;;5089854;28;20458;-62
2022/11/16 05:33:17;;;;;;;15.60;10.63;;;10.40;99.90;;;;;;5087326;28;20101;-61
2022/11/16 05:35:44;;;;;;;14.70;10.48;;;10.40;99.90;;;;;;5078425;28;20106;-62
2022/11/16 05:38:12;;;;;;;16.17;10.98;;;10.30;99.90;;;;;;5090208;28;20156;-61
2022/11/16 05:40:39;;;;;;;16.73;10.93;;;10.40;99.90;;;;;;5087720;28;20624;-61
2022/11/16 05:43:06;;;;;;;17.20;10.73;;;10.40;99.90;;;;;;5084231;28;20042;-62
2022/11/16 05:45:33;;;;;;;14.85;11.00;;;10.30;99.90;;;;;;5083475;28;20044;-61
2022/11/16 05:48:00;;;;;;;16.80;10.85;;;10.40;99.90;;;;;;5091703;28;20048;-62
2022/11/16 05:50:27;;;;;;;13.68;9.70;;;10.40;99.90;;;;;;5086930;28;20121;-62
2022/11/16 05:52:53;;;;;;;14.32;11.30;;;10.40;99.90;;;;;;5086827;28;20060;-63
2022/11/16 05:55:22;;;;;;;14.20;10.80;;;10.40;99.90;;;;;;5082394;28;20498;-63
2022/11/16 05:57:48;;;;;;;17.20;10.68;;;10.40;99.90;;;;;;5081572;28;20121;-61
2022/11/16 06:00:16;;;;;;;18.40;11.18;;;10.30;99.90;;;;;;5089228;28;20048;-61
2022/11/16 06:02:43;;;;;;;14.27;10.38;;;10.30;99.90;;;;;;5087012;28;20082;-61
2022/11/16 06:05:10;;;;;;;17.30;10.85;;;10.40;99.90;;;;;;5084414;28;20043;-60
2022/11/16 06:07:37;;;;;;;16.45;11.43;;;10.40;99.90;;;;;;5082651;28;20048;-62
2022/11/16 06:10:04;;;;;;;17.95;10.65;;;10.40;99.90;;;;;;5084070;28;20097;-62
2022/11/16 06:12:32;;;;;;;14.05;10.27;;;10.40;99.90;;;;;;5090767;28;20040;-62
2022/11/16 06:14:59;;;;;;;15.30;10.93;;;10.40;99.90;;;;;;5082329;28;20433;-62
2022/11/16 06:17:26;;;;;;;16.83;11.15;;;10.40;99.90;;;;;;5083402;28;20071;-61
2022/11/16 06:19:53;;;;;;;14.95;11.05;;;10.40;99.90;;;;;;5085046;28;20663;-62
2022/11/16 06:22:20;;;;;;;14.57;10.55;;;10.40;99.90;;;;;;5088118;28;20101;-61
2022/11/16 06:24:47;;;;;;;17.17;11.43;;;10.40;99.90;;;;;;5085025;28;20499;-61
2022/11/16 06:27:14;;;;;;;15.95;11.07;;;10.40;99.90;;;;;;5085115;28;20503;-61
2022/11/16 06:29:43;;;;;;;16.48;11.52;;;10.40;99.90;;;;;;5090960;28;20967;-61
2022/11/16 06:32:09;;;;;;;15.85;11.48;;;10.40;99.90;;;;;;5089690;28;20396;-61
2022/11/16 06:34:36;;;;;;;16.48;10.65;;;10.40;99.90;;;;;;5090813;28;20116;-62
2022/11/16 06:37:04;;;;;;;36.35;11.93;;;10.40;99.90;;;;;;5091312;28;20615;-61
2022/11/16 06:39:31;;;;;;;15.70;10.77;;;10.40;99.90;;;;;;5091323;28;20407;-61
2022/11/16 06:41:58;;;;;;;16.88;11.00;;;10.40;99.90;;;;;;5080729;28;20063;-61
2022/11/16 06:44:25;;;;;;;16.30;12.23;;;10.50;99.90;;;;;;5091254;28;20384;-62
2022/11/16 06:46:53;;;;;;;18.08;12.05;;;10.40;99.90;;;;;;5089627;28;20381;-61
2022/11/16 06:49:20;;;;;;;17.48;12.00;;;10.40;99.90;;;;;;5090510;28;20099;-63
2022/11/16 06:51:47;;;;;;;14.52;10.27;;;10.40;99.90;;;;;;5088266;28;20048;-63
2022/11/16 06:54:14;;;;;;;19.67;13.02;;;10.60;99.90;;;;;;5091182;28;20043;-61
2022/11/16 06:56:40;;;;;;;16.17;11.23;;;10.50;99.90;;;;;;5090482;28;20048;-61
2022/11/16 06:59:07;;;;;;;16.20;11.75;;;10.50;99.90;;;;;;5090962;28;20101;-61
2022/11/16 07:01:34;;;;;;;15.73;10.43;;;10.50;99.90;;;;;;5091365;28;20406;-61
2022/11/16 07:04:02;;;;;;;16.73;10.27;;;10.50;99.90;;;;;;5089482;28;20691;-62
2022/11/16 07:06:29;;;;;;;12.55;10.27;;;10.50;99.90;;;;;;5081718;28;20052;-62
2022/11/16 07:08:56;;;;;;;15.10;10.20;;;10.40;99.90;;;;;;5090572;28;20048;-61
2022/11/16 07:11:23;;;;;;;14.35;9.32;;;10.40;99.90;;;;;;5090038;28;20044;-61
2022/11/16 07:13:50;;;;;;;14.13;9.90;;;10.50;99.90;;;;;;5081505;28;20064;-61
2022/11/16 07:16:17;;;;;;;11.57;9.18;;;10.40;99.90;;;;;;5080998;28;20040;-60
2022/11/16 07:18:44;;;;;;;11.80;8.90;;;10.50;99.90;;;;;;5079057;28;20056;-62
2022/11/16 07:21:13;;;;;;;15.02;8.93;;;10.50;99.90;;;;;;5089939;28;20040;-61
2022/11/16 07:23:41;;;;;;;12.38;9.43;;;10.50;99.90;;;;;;5089862;28;20458;-60
2022/11/16 07:26:09;;;;;;;12.48;9.35;;;10.40;99.90;;;;;;5090036;28;20105;-60
2022/11/16 07:28:36;;;;;;;15.15;10.70;;;10.40;99.90;;;;;;5088933;28;20565;-61
2022/11/16 07:31:04;;;;;;;14.50;10.73;;;10.40;99.90;;;;;;5089162;28;20105;-61
2022/11/16 07:33:31;;;;;;;16.80;11.52;;;10.50;99.90;;;;;;5081704;28;20055;-61
2022/11/16 07:36:01;;;;;;;14.23;10.98;;;10.50;99.90;;;;;;5087664;28;20044;-60
2022/11/16 07:38:31;;;;;;;16.92;11.95;;;10.50;99.90;;;;;;5086403;28;20052;-62
2022/11/16 07:41:00;;;;;;;16.42;12.00;;;10.50;99.90;;;;;;5090449;28;20051;-61
2022/11/16 07:43:30;;;;;;;16.50;11.35;;;10.50;99.90;;;;;;5089725;28;20051;-61
2022/11/16 07:46:02;;;;;;;15.95;11.50;;;10.50;99.90;;;;;;5088399;28;20051;-62
2022/11/16 07:48:28;;;;;;;16.95;11.50;;;10.50;99.90;;;;;;5086539;28;20048;-60
2022/11/16 07:51:00;;;;;;;15.57;11.45;;;10.50;99.90;;;;;;5089723;28;20060;-62
2022/11/16 07:53:27;;;;;;;19.65;12.48;;;10.50;99.90;;;;;;5090320;28;20048;-61
2022/11/16 07:55:55;;;;;;;16.58;11.60;;;10.50;99.90;;;;;;5087415;28;20060;-62
2022/11/16 07:58:22;;;;;;;15.18;11.00;;;10.50;99.90;;;;;;5088026;28;20085;-61
2022/11/16 08:00:50;;;;;;;14.48;11.23;;;10.50;99.90;;;;;;5088276;28;20044;-61
2022/11/16 08:03:17;;;;;;;14.15;10.55;;;10.40;99.90;;;;;;5089290;28;20101;-61
2022/11/16 08:05:44;;;;;;;13.68;9.98;;;10.50;99.90;;;;;;5086092;28;20101;-62
2022/11/16 08:08:11;;;;;;;16.98;10.45;;;10.40;99.90;;;;;;5088205;28;20047;-62
2022/11/16 08:10:38;;;;;;;14.23;9.45;;;10.50;99.90;;;;;;5089311;28;20040;-62
2022/11/16 08:13:06;;;;;;;12.13;9.45;;;10.40;99.90;;;;;;5089875;28;20088;-62
2022/11/16 08:15:33;;;;;;;13.25;9.50;;;10.50;99.90;;;;;;5089198;28;20047;-61
2022/11/16 08:18:00;;;;;;;13.05;9.52;;;10.50;99.90;;;;;;5089601;28;20457;-62
2022/11/16 08:20:27;;;;;;;13.23;9.13;;;10.50;99.90;;;;;;5088465;28;20431;-62
2022/11/16 08:22:59;;;;;;;12.25;9.43;;;10.50;99.90;;;;;;5089629;28;20460;-62
2022/11/16 08:25:26;;;;;;;14.73;10.35;;;10.40;99.90;;;;;;5090367;28;20048;-62
2022/11/16 08:27:53;;;;;;;13.20;10.23;;;10.50;99.90;;;;;;5089309;28;20519;-61
2022/11/16 08:30:21;;;;;;;15.82;11.02;;;10.30;99.90;;;;;;5090447;28;20044;-61
2022/11/16 08:32:48;;;;;;;13.77;10.73;;;11.00;99.90;;;;;;5089550;28;20107;-61
2022/11/16 08:35:15;;;;;;;15.35;10.90;;;10.40;99.90;;;;;;5088720;28;20044;-61
2022/11/16 08:37:41;;;;;;;13.30;10.02;;;10.50;99.90;;;;;;5090052;28;20075;-62
2022/11/16 08:40:09;;;;;;;14.20;10.43;;;10.50;99.90;;;;;;5090065;28;20048;-60
2022/11/16 08:42:36;;;;;;;14.70;10.90;;;10.40;99.90;;;;;;5088461;28;20044;-62
2022/11/16 08:45:03;;;;;;;14.43;10.63;;;10.50;99.90;;;;;;5088974;28;20040;-61
2022/11/16 08:47:33;;;;;;;14.25;10.82;;;10.50;99.90;;;;;;5090007;28;20093;-63
2022/11/16 08:49:59;;;;;;;14.13;11.13;;;10.50;99.90;;;;;;5089629;28;20094;-60
2022/11/16 08:52:26;;;;;;;14.35;10.20;;;10.50;99.90;;;;;;5089677;28;20119;-62
2022/11/16 08:54:53;;;;;;;12.60;9.38;;;10.50;99.90;;;;;;5088533;28;20105;-61
2022/11/16 08:57:20;;;;;;;13.50;9.50;;;10.50;99.90;;;;;;5087622;28;20044;-60
2022/11/16 08:59:47;;;;;;;15.52;10.85;;;10.50;99.90;;;;;;5088836;28;20060;-61
2022/11/16 09:02:14;;;;;;;14.23;10.23;;;10.50;99.90;;;;;;5086988;28;20109;-62
2022/11/16 09:04:42;;;;;;;14.18;10.02;;;10.50;99.90;;;;;;5088345;28;20040;-62
2022/11/16 09:07:10;;;;;;;15.00;10.73;;;10.50;99.90;;;;;;5088743;28;20552;-61
2022/11/16 09:09:37;;;;;;;13.85;10.52;;;10.50;99.90;;;;;;5086758;28;20052;-61
2022/11/16 09:12:04;;;;;;;16.35;11.27;;;10.60;99.90;;;;;;5087630;28;20055;-62
2022/11/16 09:14:31;;;;;;;16.35;11.15;;;10.60;99.90;;;;;;5087776;28;20059;-62
2022/11/16 09:16:58;;;;;;;13.85;10.02;;;10.60;99.90;;;;;;5089292;28;20047;-63
2022/11/16 09:19:25;;;;;;;13.27;10.18;;;10.70;99.90;;;;;;5088507;28;20329;-62
2022/11/16 09:21:53;;;;;;;13.82;10.40;;;10.70;99.90;;;;;;5089089;28;20444;-62
2022/11/16 09:24:20;;;;;;;14.20;10.88;;;10.80;99.90;;;;;;5088011;28;20305;-62
2022/11/16 09:26:47;;;;;;;14.90;10.82;;;10.80;99.90;;;;;;5089584;28;20044;-63
2022/11/16 09:29:15;;;;;;;13.70;11.05;;;10.80;99.90;;;;;;5089163;28;20044;-61
2022/11/16 09:31:42;;;;;;;15.27;9.88;;;10.80;99.90;;;;;;5088682;28;20506;-63
2022/11/16 09:34:09;;;;;;;15.90;10.90;;;10.90;99.90;;;;;;5088787;28;20093;-61
2022/11/16 09:36:36;;;;;;;12.85;10.48;;;10.90;99.90;;;;;;5091606;28;20093;-61
2022/11/16 09:39:04;;;;;;;13.88;10.00;;;10.90;99.90;;;;;;5089084;28;20496;-62
2022/11/16 09:41:47;;;;;;;14.77;10.77;;;10.90;99.90;;;;;;5091497;28;20056;-62
2022/11/16 09:44:28;;;;;;;12.48;10.10;;;11.00;99.90;;;;;;5089787;28;20082;-62
2022/11/16 09:46:58;;;;;;;12.50;8.63;;;11.00;99.90;;;;;;5087973;28;20052;-62
2022/11/16 09:49:28;;;;;;;11.40;8.32;;;11.00;99.90;;;;;;5089669;28;20051;-62
2022/11/16 09:51:59;;;;;;;11.32;8.38;;;11.00;99.90;;;;;;5090868;28;20481;-63
2022/11/16 09:54:28;;;;;;;;;;;11.00;99.90;;;;;;5089667;28;20044;-63
2022/11/16 09:56:59;;;;;;;11.00;7.93;;;11.00;99.90;;;;;;5094141;28;20385;-61
2022/11/16 09:59:31;;;;;;;9.18;7.18;;;11.10;99.90;;;;;;5094243;28;20047;-61
2022/11/16 10:02:02;;;;;;;11.18;8.05;;;11.20;99.90;;;;;;5093962;28;20404;-61
2022/11/16 10:04:37;;;;;;;10.57;7.60;;;11.20;99.90;;;;;;5092851;28;20044;-61
2022/11/16 10:07:12;;;;;;;9.10;7.20;;;11.30;99.90;;;;;;5094795;28;20126;-62
2022/11/16 10:09:41;;;;;;;9.75;7.65;;;11.40;99.90;;;;;;5093577;28;20548;-62
2022/11/16 10:12:15;;;;;;;11.18;7.88;;;11.50;99.90;;;;;;5094159;28;20098;-61
2022/11/16 10:15:06;;;;;;;10.57;8.30;;;11.50;99.90;;;;;;5094809;28;20470;-61
2022/11/16 10:18:08;;;;;;;9.43;7.47;;;11.50;99.90;;;;;;5092770;28;20162;-60
2022/11/16 10:21:00;;;;;;;9.40;7.97;;;11.50;99.90;;;;;;5091457;28;20059;-61
2022/11/16 10:23:40;;;;;;;11.98;8.00;;;11.50;99.90;;;;;;5094444;28;20056;-61
2022/11/16 10:26:17;;;;;;;10.38;7.35;;;11.40;99.90;;;;;;5091153;28;20043;-61
2022/11/16 10:28:55;;;;;;;9.43;7.90;;;11.50;99.90;;;;;;5093218;28;20060;-61
2022/11/16 10:31:30;;;;;;;10.45;7.53;;;11.50;99.90;;;;;;5092152;28;20105;-60
2022/11/16 10:34:01;;;;;;;11.35;8.23;;;11.50;99.90;;;;;;5091729;28;20076;-61
2022/11/16 10:36:30;;;;;;;;;;;11.40;99.90;;;;;;5093747;28;20051;-62
2022/11/16 10:39:12;;;;;;;9.77;7.75;;;11.40;99.90;;;;;;5093063;28;19924;-61
2022/11/16 10:41:43;;;;;;;12.90;8.32;;;11.50;99.90;;;;;;5092097;28;20052;-61
2022/11/16 10:44:15;;;;;;;11.00;8.15;;;11.50;99.90;;;;;;5093066;28;20105;-62
2022/11/16 10:46:49;;;;;;;13.13;8.38;;;11.60;99.90;;;;;;5094127;28;20484;-62
2022/11/16 10:49:21;;;;;;;12.27;7.50;;;11.60;99.90;;;;;;5089144;28;20105;-61
2022/11/16 10:51:48;;;;;;;12.75;8.30;;;11.70;99.90;;;;;;5091814;28;20048;-62
2022/11/16 10:54:16;;;;;;;12.95;8.48;;;11.90;99.90;;;;;;5085155;28;20044;-63
2022/11/16 10:56:48;;;;;;;13.43;9.63;;;12.20;99.90;;;;;;5040740;28;20052;-62
2022/11/16 10:59:19;;;;;;;15.68;9.18;;;12.40;99.90;;;;;;5088444;28;20048;-62
2022/11/16 11:01:49;;;;;;;10.30;7.35;;;12.50;99.90;;;;;;5088871;28;20064;-62
2022/11/16 11:04:20;;;;;;;;;;;13.30;99.90;;;;;;5094210;28;20097;-62
2022/11/16 11:06:50;;;;;;;11.38;6.90;;;13.90;99.90;;;;;;5092031;28;19927;-62
2022/11/16 11:09:25;;;;;;;13.77;6.55;;;15.20;99.90;;;;;;5092473;28;20046;-61
2022/11/16 11:15:04;;;;;;;10.25;6.28;;;15.80;99.90;;;;;;5084209;28;20139;-62
2022/11/16 11:17:32;;;;;;;9.95;5.88;;;15.20;99.90;;;;;;5078601;28;20547;-63
2022/11/16 11:20:02;;;;;;;9.05;6.00;;;16.00;99.90;;;;;;5082105;28;20112;-62
2022/11/16 11:22:30;;;;;;;16.08;5.28;;;17.10;99.90;;;;;;5078119;28;20051;-62
2022/11/16 11:24:57;;;;;;;7.72;4.72;;;18.10;99.90;;;;;;5088419;28;20063;-62
2022/11/16 11:27:32;;;;;;;7.05;4.97;;;18.50;99.90;;;;;;5090172;28;20454;-62
2022/11/16 11:30:00;;;;;;;6.97;4.40;;;18.50;99.90;;;;;;5081669;28;20059;-62
2022/11/16 11:32:32;;;;;;;7.00;4.55;;;18.80;99.90;;;;;;5089530;28;20503;-62
2022/11/16 11:35:00;;;;;;;7.30;4.30;;;19.20;99.90;;;;;;5087048;28;20557;-62
2022/11/16 11:37:32;;;;;;;7.28;4.30;;;19.20;99.90;;;;;;5079786;28;20496;-62
2022/11/16 11:40:21;;;;;;;6.85;4.15;;;19.00;99.90;;;;;;5087639;28;20051;-62
2022/11/16 11:42:58;;;;;;;9.15;4.03;;;18.30;99.90;;;;;;5079305;28;20518;-61
2022/11/16 11:45:32;;;;;;;5.18;3.95;;;18.00;99.90;;;;;;5080493;28;20051;-62
2022/11/16 11:48:01;;;;;;;8.65;4.55;;;18.10;99.90;;;;;;5084431;28;20051;-62
2022/11/16 11:50:47;;;;;;;8.60;4.63;;;18.10;99.90;;;;;;5082239;28;20049;-62
2022/11/16 11:53:23;;;;;;;7.93;4.63;;;17.90;99.90;;;;;;5085813;28;20052;-61
2022/11/16 11:55:56;;;;;;;8.75;4.63;;;17.90;99.90;;;;;;5085490;28;20450;-61
2022/11/16 11:58:29;;;;;;;7.68;4.13;;;17.60;99.90;;;;;;5081404;28;20787;-62
2022/11/16 12:01:08;;;;;;;10.27;4.00;;;17.50;99.90;;;;;;5089262;28;20070;-62
2022/11/16 12:03:56;;;;;;;8.88;4.53;;;17.10;99.90;;;;;;5085650;28;20056;-61
2022/11/16 12:06:31;;;;;;;5.38;3.92;;;16.70;99.90;;;;;;5085931;28;20053;-62
2022/11/16 12:09:12;;;;;;;11.02;4.43;;;16.90;99.90;;;;;;5081606;28;20048;-64
2022/11/16 12:11:54;;;;;;;8.70;5.10;;;17.90;99.90;;;;;;5086802;28;20488;-61
2022/11/16 12:14:32;;;;;;;7.75;4.50;;;18.20;99.90;;;;;;5089506;28;20117;-63
2022/11/16 12:17:07;;;;;;;6.20;3.83;;;18.70;99.90;;;;;;5080244;28;20051;-62
2022/11/16 12:20:04;;;;;;;6.40;3.20;;;19.60;99.90;;;;;;5085165;28;20048;-62
2022/11/16 12:22:57;;;;;;;8.02;3.30;;;20.60;99.90;;;;;;5079668;28;20039;-61
2022/11/16 12:25:30;;;;;;;4.60;2.63;;;21.30;99.90;;;;;;5086983;28;20044;-62
2022/11/16 12:28:11;;;;;;;4.60;2.28;;;21.80;99.90;;;;;;5081326;28;20436;-62
2022/11/16 12:30:49;;;;;;;8.20;2.63;;;21.10;99.90;;;;;;5089280;28;20093;-63
2022/11/16 12:33:25;;;;;;;6.65;2.70;;;20.10;99.90;;;;;;5086614;28;20101;-62
2022/11/16 12:36:01;;;;;;;9.00;2.58;;;19.00;99.90;;;;;;5084011;28;20051;-62
2022/11/16 12:38:56;;;;;;;8.82;2.80;;;19.10;99.90;;;;;;5087056;28;20051;-62
2022/11/16 12:41:48;;;;;;;5.78;2.47;;;19.70;99.90;;;;;;5087697;28;20043;-62
2022/11/16 12:44:21;;;;;;;5.13;2.72;;;20.40;99.90;;;;;;5087637;28;20403;-62
2022/11/16 12:46:58;;;;;;;6.07;2.20;;;20.80;99.90;;;;;;5090479;28;20044;-63
2022/11/16 12:49:42;;;;;;;6.35;2.15;;;21.40;99.90;;;;;;5091104;28;20471;-62
2022/11/16 12:52:21;;;;;;;6.18;2.33;;;22.10;99.90;;;;;;5087086;28;20441;-61
2022/11/16 12:55:08;;;;;;;7.63;2.30;;;21.80;99.90;;;;;;5078369;28;20060;-63
2022/11/16 12:57:43;;;;;;;7.55;2.40;;;21.90;99.90;;;;;;5049207;28;20056;-63
2022/11/16 13:00:13;;;;;;;6.25;2.65;;;22.10;99.90;;;;;;5091314;28;20052;-63
2022/11/16 13:03:01;;;;;;;5.40;2.78;;;21.50;99.90;;;;;;5091341;28;20055;-62
2022/11/16 13:05:45;;;;;;;4.53;2.28;;;21.10;99.90;;;;;;5090849;28;20472;-62
2022/11/16 13:08:19;;;;;;;6.32;2.42;;;20.80;99.90;;;;;;5089888;28;20101;-62
2022/11/16 13:10:50;;;;;;;5.93;2.33;;;20.60;99.90;;;;;;5090673;28;20101;-62
2022/11/16 13:13:22;;;;;;;6.18;2.30;;;20.90;99.90;;;;;;5091994;28;20040;-63
2022/11/16 13:15:49;;;;;;;5.25;2.40;;;21.50;99.90;;;;;;5087952;28;20060;-62
2022/11/16 13:18:21;;;;;;;7.82;2.10;;;22.10;99.90;;;;;;5090258;28;20040;-63
2022/11/16 13:20:57;;;;;;;5.70;2.28;;;22.20;99.90;;;;;;5090743;28;20047;-62
2022/11/16 13:23:37;;;;;;;6.00;2.10;;;22.30;95.70;;;;;;5091328;28;20101;-63
2022/11/16 13:26:09;;;;;;;7.55;2.03;;;22.40;98.60;;;;;;5090359;28;20047;-62
2022/11/16 13:28:43;;;;;;;7.00;2.58;;;22.20;96.80;;;;;;5091550;28;20097;-63
2022/11/16 13:31:16;;;;;;;4.43;1.70;;;22.10;95.30;;;;;;5092937;28;20438;-61
2022/11/16 13:33:48;;;;;;;5.38;1.77;;;22.30;97.30;;;;;;5094478;28;20068;-63
2022/11/16 13:36:44;;;;;;;8.90;1.92;;;22.30;97.00;;;;;;5091947;28;20051;-63
2022/11/16 13:39:13;;;;;;;6.60;1.98;;;22.40;94.70;;;;;;5093198;28;20051;-62